Time;durP1;ratioP1;P1;durP2;ratioP2;P2;SDS_P1;SDS_P2;PMS_P1;PMS_P2;Temp;Humidity;BMP_temperature;BMP_pressure;BME280_temperature;BME280_humidity;BME280_pressure;Samples;Min_cycle;Max_cycle;Signal;HPM_P1;HPM_P2
2023/09/25 00:01:12;;;;;;;2.05;0.60;;;15.00;78.50;;;;;;4994550;28;20022;-78
2023/09/25 00:03:41;;;;;;;2.65;0.75;;;14.90;78.50;;;;;;4994661;28;20041;-79
2023/09/25 00:06:06;;;;;;;1.95;0.63;;;14.90;78.50;;;;;;4994860;28;20113;-79
2023/09/25 00:08:32;;;;;;;2.95;0.80;;;14.90;79.20;;;;;;4993383;28;20062;-79
2023/09/25 00:10:57;;;;;;;3.55;0.82;;;14.90;78.60;;;;;;4994104;28;20026;-80
2023/09/25 00:13:23;;;;;;;2.95;0.85;;;14.90;78.60;;;;;;4993152;28;20029;-79
2023/09/25 00:15:49;;;;;;;3.35;0.60;;;14.90;78.60;;;;;;4994149;28;20077;-81
2023/09/25 00:18:14;;;;;;;3.00;0.60;;;14.90;78.60;;;;;;4993991;28;20031;-79
2023/09/25 00:20:41;;;;;;;3.35;0.80;;;14.90;78.60;;;;;;4993238;28;20385;-79
2023/09/25 00:23:06;;;;;;;2.25;0.63;;;14.90;78.70;;;;;;4993599;28;20033;-79
2023/09/25 00:25:32;;;;;;;2.22;0.70;;;14.80;78.60;;;;;;4992896;28;20390;-79
2023/09/25 00:28:02;;;;;;;3.53;0.77;;;14.80;78.70;;;;;;4994448;28;20029;-79
2023/09/25 00:30:28;;;;;;;1.63;0.65;;;14.80;78.60;;;;;;4993835;28;20092;-79
2023/09/25 00:32:54;;;;;;;4.10;0.60;;;14.80;78.60;;;;;;4992833;28;20474;-79
2023/09/25 00:35:20;;;;;;;3.33;0.60;;;14.80;79.20;;;;;;4993991;28;20068;-79
2023/09/25 00:37:47;;;;;;;1.92;0.60;;;14.80;78.60;;;;;;4994021;28;20105;-79
2023/09/25 00:40:13;;;;;;;2.03;0.60;;;14.70;78.60;;;;;;4993945;28;20153;-80
2023/09/25 00:42:45;;;;;;;3.40;0.93;;;14.70;78.50;;;;;;4992610;28;20117;-79
2023/09/25 00:45:11;;;;;;;2.42;0.73;;;14.70;78.60;;;;;;4993691;28;20030;-79
2023/09/25 00:47:41;;;;;;;1.98;0.70;;;14.70;78.60;;;;;;4993778;28;20022;-79
2023/09/25 00:50:08;;;;;;;4.38;0.80;;;14.70;78.60;;;;;;4976137;28;20374;-80
2023/09/25 00:52:36;;;;;;;6.35;1.10;;;14.70;78.50;;;;;;4994100;28;20030;-80
2023/09/25 00:55:04;;;;;;;2.05;0.70;;;14.60;78.50;;;;;;4993711;28;20050;-80
2023/09/25 00:57:30;;;;;;;3.67;0.70;;;14.60;78.50;;;;;;4992395;28;20544;-80
2023/09/25 00:59:56;;;;;;;2.60;0.80;;;14.60;78.60;;;;;;4993463;28;20031;-81
2023/09/25 01:02:22;;;;;;;3.00;0.70;;;14.60;78.50;;;;;;4975939;28;20030;-81
2023/09/25 01:04:48;;;;;;;4.45;1.00;;;14.60;79.20;;;;;;4993801;28;20026;-81
2023/09/25 01:07:18;;;;;;;3.47;0.73;;;14.60;78.90;;;;;;4993413;28;20018;-79
2023/09/25 01:10:23;;;;;;;4.55;0.85;;;14.50;78.80;;;;;;4993735;28;20478;-80
2023/09/25 01:12:49;;;;;;;1.58;0.60;;;14.50;78.80;;;;;;4993025;28;20042;-80
2023/09/25 01:15:15;;;;;;;3.03;0.75;;;14.50;78.80;;;;;;4993297;28;20106;-79
2023/09/25 01:17:42;;;;;;;2.85;0.77;;;14.50;78.80;;;;;;4993662;28;20045;-81
2023/09/25 01:20:13;;;;;;;3.15;0.60;;;14.40;78.80;;;;;;4993656;28;20442;-82
2023/09/25 01:22:40;;;;;;;2.90;0.60;;;14.40;78.80;;;;;;4993433;28;20069;-80
2023/09/25 01:25:06;;;;;;;2.70;0.65;;;14.40;78.90;;;;;;4993660;28;20022;-80
2023/09/25 01:27:32;;;;;;;1.85;0.65;;;14.40;79.00;;;;;;4993154;28;20488;-80
2023/09/25 01:29:59;;;;;;;2.28;0.70;;;14.40;79.00;;;;;;4993079;28;20058;-80
2023/09/25 01:32:25;;;;;;;3.67;0.70;;;14.40;78.90;;;;;;4993558;28;20077;-80
2023/09/25 01:34:50;;;;;;;2.45;0.77;;;14.40;79.00;;;;;;4979101;28;20027;-79
2023/09/25 01:37:16;;;;;;;2.97;0.70;;;14.30;79.00;;;;;;4980041;28;20034;-79
2023/09/25 01:39:42;;;;;;;1.90;0.60;;;14.30;79.10;;;;;;4997035;28;20037;-80
2023/09/25 01:42:07;;;;;;;4.13;0.85;;;14.40;79.10;;;;;;4996770;28;20033;-80
2023/09/25 01:44:33;;;;;;;3.67;0.98;;;14.30;79.20;;;;;;4996982;28;20033;-78
2023/09/25 01:46:59;;;;;;;7.70;1.10;;;14.30;79.20;;;;;;4996756;28;20029;-79
2023/09/25 01:49:24;;;;;;;4.00;0.82;;;14.30;79.20;;;;;;4979474;28;20033;-79
2023/09/25 01:51:50;;;;;;;2.75;0.80;;;14.30;79.20;;;;;;4997219;28;20109;-78
2023/09/25 01:54:16;;;;;;;2.83;1.00;;;14.30;79.30;;;;;;4997113;28;20015;-79
2023/09/25 01:56:44;;;;;;;2.65;0.88;;;14.30;79.20;;;;;;4962466;28;20051;-79
2023/09/25 01:59:09;;;;;;;2.67;0.80;;;14.20;79.20;;;;;;4977807;28;20018;-80
2023/09/25 02:01:36;;;;;;;2.67;1.00;;;14.20;79.30;;;;;;4977280;28;20558;-79
2023/09/25 02:04:01;;;;;;;2.83;0.60;;;14.20;79.30;;;;;;4977304;28;20406;-80
2023/09/25 02:06:27;;;;;;;2.65;0.80;;;14.20;79.30;;;;;;4977552;28;20019;-79
2023/09/25 02:08:52;;;;;;;2.03;0.70;;;14.20;79.40;;;;;;4976004;28;20463;-78
2023/09/25 02:11:18;;;;;;;2.88;0.90;;;14.10;79.30;;;;;;4976874;28;20083;-80
2023/09/25 02:13:44;;;;;;;3.25;0.80;;;14.20;79.50;;;;;;4977425;28;20363;-79
2023/09/25 02:16:10;;;;;;;3.50;1.00;;;14.20;79.40;;;;;;4976814;28;20050;-79
2023/09/25 02:18:36;;;;;;;3.67;0.80;;;14.10;79.40;;;;;;4977299;28;20022;-79
2023/09/25 02:21:01;;;;;;;4.18;0.77;;;14.10;79.50;;;;;;4976941;28;20510;-79
2023/09/25 02:23:27;;;;;;;2.65;0.82;;;14.10;79.50;;;;;;4975649;28;20019;-79
2023/09/25 02:25:52;;;;;;;3.05;0.90;;;14.10;79.50;;;;;;4976589;28;20019;-79
2023/09/25 02:28:18;;;;;;;2.33;0.80;;;14.10;79.60;;;;;;4977096;28;20034;-79
2023/09/25 02:30:43;;;;;;;2.60;1.08;;;14.10;79.60;;;;;;4976989;28;20109;-81
2023/09/25 02:33:09;;;;;;;3.33;0.70;;;14.00;79.60;;;;;;4959317;28;20023;-79
2023/09/25 02:35:36;;;;;;;4.40;0.88;;;14.10;79.70;;;;;;4977026;28;20021;-80
2023/09/25 02:38:02;;;;;;;3.28;0.63;;;14.10;79.80;;;;;;4977010;28;20019;-81
2023/09/25 02:40:28;;;;;;;2.75;0.90;;;14.10;79.80;;;;;;4976790;28;20051;-80
2023/09/25 02:42:53;;;;;;;4.32;0.82;;;14.00;79.80;;;;;;4976584;28;20089;-79
2023/09/25 02:45:19;;;;;;;3.28;0.90;;;14.00;79.80;;;;;;4976123;28;20367;-78
2023/09/25 02:47:45;;;;;;;4.53;1.10;;;14.00;79.80;;;;;;4975503;28;20482;-79
2023/09/25 02:50:11;;;;;;;2.30;0.90;;;14.00;79.90;;;;;;4976562;28;20054;-80
2023/09/25 02:52:37;;;;;;;3.60;0.85;;;14.00;79.90;;;;;;4975304;28;20019;-79
2023/09/25 02:55:03;;;;;;;3.60;0.70;;;14.00;80.00;;;;;;4976212;28;20064;-78
2023/09/25 02:57:29;;;;;;;2.95;0.80;;;14.00;80.10;;;;;;4978105;28;20033;-80
2023/09/25 02:59:55;;;;;;;3.53;1.20;;;14.00;80.10;;;;;;4995759;28;20117;-79
2023/09/25 03:02:21;;;;;;;4.28;0.93;;;14.00;80.20;;;;;;4978600;28;20069;-81
2023/09/25 03:04:47;;;;;;;2.75;0.80;;;13.90;80.10;;;;;;4995624;28;20136;-80
2023/09/25 03:07:13;;;;;;;2.50;0.70;;;13.90;80.80;;;;;;4995750;28;20034;-79
2023/09/25 03:09:39;;;;;;;1.83;0.70;;;13.90;80.20;;;;;;4977845;28;20026;-79
2023/09/25 03:12:05;;;;;;;3.65;0.95;;;13.90;80.30;;;;;;4995438;28;20526;-80
2023/09/25 03:14:31;;;;;;;3.13;0.80;;;13.90;80.30;;;;;;4977826;28;20030;-80
2023/09/25 03:16:56;;;;;;;2.33;0.80;;;13.80;80.40;;;;;;4995609;28;20045;-79
2023/09/25 03:19:22;;;;;;;3.70;0.70;;;13.90;80.40;;;;;;4995442;28;20037;-79
2023/09/25 03:21:48;;;;;;;3.03;0.90;;;13.90;80.60;;;;;;4995347;28;20037;-79
2023/09/25 03:24:13;;;;;;;2.85;1.00;;;13.80;80.50;;;;;;4994746;28;20026;-78
2023/09/25 03:26:39;;;;;;;2.15;0.70;;;13.80;80.70;;;;;;4995315;28;20093;-79
2023/09/25 03:29:06;;;;;;;3.70;0.90;;;13.90;80.80;;;;;;4995564;28;20061;-78
2023/09/25 03:31:32;;;;;;;3.10;1.08;;;13.90;80.90;;;;;;4995542;28;20030;-80
2023/09/25 03:33:58;;;;;;;2.78;0.90;;;13.90;80.90;;;;;;4995120;28;20026;-79
2023/09/25 03:36:24;;;;;;;3.53;0.93;;;13.80;80.90;;;;;;4995137;28;20027;-81
2023/09/25 03:38:49;;;;;;;3.63;0.70;;;13.80;81.10;;;;;;4994576;28;20034;-79
2023/09/25 03:41:15;;;;;;;3.40;0.70;;;13.80;81.00;;;;;;4977478;28;20030;-78
2023/09/25 03:43:41;;;;;;;2.47;0.70;;;13.80;81.10;;;;;;4995039;28;20057;-78
2023/09/25 03:46:07;;;;;;;4.60;1.05;;;13.80;81.20;;;;;;4993569;28;20034;-80
2023/09/25 03:48:32;;;;;;;2.47;0.90;;;13.80;81.20;;;;;;4994656;28;20489;-79
2023/09/25 03:50:58;;;;;;;3.22;0.98;;;13.80;81.30;;;;;;4994990;28;20031;-79
2023/09/25 03:53:24;;;;;;;8.10;1.20;;;13.80;81.40;;;;;;4994490;28;20386;-79
2023/09/25 03:55:50;;;;;;;2.63;0.90;;;13.80;81.50;;;;;;4994449;28;20046;-78
2023/09/25 03:58:15;;;;;;;2.05;0.80;;;13.70;81.40;;;;;;4994756;28;20030;-78
2023/09/25 04:00:41;;;;;;;2.53;0.90;;;13.70;81.50;;;;;;4977023;28;20478;-78
2023/09/25 04:03:07;;;;;;;2.75;0.70;;;13.70;81.60;;;;;;4994434;28;20107;-79
2023/09/25 04:05:33;;;;;;;3.17;1.00;;;13.70;81.80;;;;;;4994702;28;20503;-80
2023/09/25 04:08:00;;;;;;;2.95;0.80;;;13.70;81.80;;;;;;4992639;28;20034;-79
2023/09/25 04:10:27;;;;;;;5.47;0.90;;;13.70;81.90;;;;;;4993371;28;20032;-79
2023/09/25 04:15:34;;;;;;;1.88;0.60;;;13.70;82.00;;;;;;3324673;22;21666;-75
2023/09/25 04:18:00;;;;;;;4.82;1.25;;;13.70;82.10;;;;;;4980632;28;20148;-78
2023/09/25 04:20:26;;;;;;;4.47;1.20;;;13.70;82.20;;;;;;4974092;28;20491;-82
2023/09/25 04:22:52;;;;;;;3.85;0.90;;;13.70;82.30;;;;;;4983225;28;20034;-79
2023/09/25 04:25:19;;;;;;;3.28;0.95;;;13.70;82.40;;;;;;4981174;28;20023;-78
2023/09/25 04:27:53;;;;;;;4.97;0.90;;;13.60;82.40;;;;;;4974608;28;20363;-78
2023/09/25 04:30:20;;;;;;;4.10;0.80;;;13.60;82.50;;;;;;4977949;28;20426;-78
2023/09/25 04:32:49;;;;;;;3.35;0.80;;;13.60;82.50;;;;;;4974126;28;20031;-79
2023/09/25 04:35:17;;;;;;;3.28;1.30;;;13.60;82.60;;;;;;4986857;28;20124;-79
2023/09/25 04:37:43;;;;;;;4.80;1.10;;;13.60;82.70;;;;;;4975300;28;20047;-79
2023/09/25 04:40:14;;;;;;;2.20;0.80;;;13.60;82.80;;;;;;4983801;28;20116;-78
2023/09/25 04:42:44;;;;;;;3.22;0.80;;;13.60;82.90;;;;;;4987475;28;20092;-78
2023/09/25 04:45:12;;;;;;;3.28;1.00;;;13.60;82.90;;;;;;4985535;28;20026;-78
2023/09/25 04:47:41;;;;;;;2.47;0.77;;;13.60;83.00;;;;;;4993755;28;20466;-78
2023/09/25 04:50:08;;;;;;;2.85;0.82;;;13.60;83.00;;;;;;4979645;28;20031;-78
2023/09/25 04:52:34;;;;;;;3.75;0.90;;;13.60;83.10;;;;;;4973981;28;20041;-77
2023/09/25 04:55:03;;;;;;;2.15;0.85;;;13.60;83.10;;;;;;4974058;28;20030;-80
2023/09/25 04:57:29;;;;;;;3.88;1.20;;;13.60;83.10;;;;;;4974247;28;20046;-78
2023/09/25 04:59:55;;;;;;;2.45;1.00;;;13.60;83.10;;;;;;4983051;28;20073;-77
2023/09/25 05:02:20;;;;;;;2.70;0.90;;;13.50;83.10;;;;;;4975682;28;20041;-79
2023/09/25 05:04:46;;;;;;;2.95;1.00;;;13.60;83.30;;;;;;4972911;28;20472;-79
2023/09/25 05:07:11;;;;;;;3.08;0.80;;;13.60;83.20;;;;;;4974179;28;20058;-78
2023/09/25 05:09:39;;;;;;;3.08;0.85;;;13.50;83.10;;;;;;4973548;28;20026;-78
2023/09/25 05:12:05;;;;;;;2.50;0.65;;;13.50;83.20;;;;;;4973714;28;20407;-78
2023/09/25 05:14:31;;;;;;;2.53;0.88;;;13.50;83.20;;;;;;4956455;28;20038;-78
2023/09/25 05:16:59;;;;;;;1.73;0.70;;;13.50;83.90;;;;;;4973934;28;20050;-78
2023/09/25 05:19:25;;;;;;;2.85;1.25;;;13.50;83.30;;;;;;4956794;28;20030;-78
2023/09/25 05:21:50;;;;;;;3.95;0.90;;;13.50;83.40;;;;;;4978267;28;20108;-78
2023/09/25 05:24:16;;;;;;;2.58;1.02;;;13.50;83.50;;;;;;4993192;28;20033;-78
2023/09/25 05:26:42;;;;;;;2.90;0.80;;;13.50;84.10;;;;;;4992972;28;20524;-78
2023/09/25 05:29:07;;;;;;;3.15;0.70;;;13.50;83.50;;;;;;4992686;28;20026;-78
2023/09/25 05:31:33;;;;;;;2.85;0.73;;;13.50;83.50;;;;;;4987023;28;20037;-79
2023/09/25 05:33:58;;;;;;;3.38;0.90;;;13.50;83.50;;;;;;4982032;28;20113;-79
2023/09/25 05:36:24;;;;;;;2.70;0.82;;;13.50;83.50;;;;;;4973799;28;20489;-78
2023/09/25 05:38:50;;;;;;;2.17;0.80;;;13.50;83.60;;;;;;4973859;28;20035;-79
2023/09/25 05:41:16;;;;;;;3.40;0.80;;;13.50;83.50;;;;;;4972544;28;20462;-79
2023/09/25 05:43:42;;;;;;;3.35;0.90;;;13.50;83.60;;;;;;4973824;28;20027;-78
2023/09/25 05:50:06;;;;;;;1.45;0.55;;;13.50;83.60;;;;;;4975028;28;20026;-78
2023/09/25 05:55:47;;;;;;;2.28;0.80;;;13.50;83.60;;;;;;5001360;28;20066;-83
2023/09/25 05:58:13;;;;;;;2.58;0.80;;;13.60;83.60;;;;;;4987285;28;20021;-83
2023/09/25 06:00:44;;;;;;;5.05;0.80;;;13.50;83.60;;;;;;4985078;28;20014;-83
2023/09/25 06:03:10;;;;;;;3.03;0.90;;;13.60;83.80;;;;;;5001622;28;20500;-83
2023/09/25 06:05:36;;;;;;;4.20;0.90;;;13.60;83.70;;;;;;5007026;28;20050;-83
2023/09/25 06:08:01;;;;;;;2.28;0.70;;;13.60;83.80;;;;;;4985552;28;20381;-83
2023/09/25 06:10:27;;;;;;;3.20;0.88;;;13.60;83.80;;;;;;4985222;28;20473;-82
2023/09/25 06:12:53;;;;;;;3.55;0.82;;;13.60;83.90;;;;;;4998378;28;20022;-82
2023/09/25 06:15:18;;;;;;;3.15;0.93;;;13.70;83.90;;;;;;4975215;28;20041;-81
2023/09/25 06:17:45;;;;;;;3.28;0.90;;;13.70;83.90;;;;;;4992648;28;20042;-82
2023/09/25 06:20:20;;;;;;;3.25;0.80;;;13.70;84.00;;;;;;4992742;28;20037;-82
2023/09/25 06:22:46;;;;;;;4.15;1.30;;;13.80;84.00;;;;;;4996441;28;20030;-82
2023/09/25 06:25:17;;;;;;;2.20;0.82;;;13.80;84.10;;;;;;4996353;28;20393;-83
2023/09/25 06:27:46;;;;;;;1.95;0.70;;;13.80;84.00;;;;;;4988614;28;20165;-82
2023/09/25 06:30:13;;;;;;;3.65;0.85;;;13.80;84.10;;;;;;5006770;28;20036;-81
2023/09/25 06:32:39;;;;;;;2.42;0.80;;;13.90;84.10;;;;;;4995321;28;20030;-81
2023/09/25 06:35:06;;;;;;;5.43;1.23;;;13.90;84.10;;;;;;5015257;28;20390;-81
2023/09/25 06:37:32;;;;;;;2.95;0.80;;;14.00;84.20;;;;;;4998242;28;20026;-81
2023/09/25 06:39:57;;;;;;;3.08;0.82;;;14.00;84.20;;;;;;4994515;28;20027;-82
2023/09/25 06:42:23;;;;;;;3.53;0.80;;;14.00;84.10;;;;;;4992160;28;20029;-82
2023/09/25 06:44:49;;;;;;;2.55;0.90;;;14.10;84.10;;;;;;4996796;28;20033;-82
2023/09/25 06:47:15;;;;;;;3.60;0.90;;;14.10;84.00;;;;;;5014444;28;20045;-81
2023/09/25 06:49:40;;;;;;;3.17;0.70;;;14.20;84.10;;;;;;5010084;28;20022;-82
2023/09/25 06:52:06;;;;;;;3.38;0.85;;;14.20;84.10;;;;;;5014931;28;20022;-82
2023/09/25 06:54:32;;;;;;;3.47;0.88;;;14.30;84.10;;;;;;4997396;28;20432;-82
2023/09/25 06:56:58;;;;;;;2.90;0.90;;;14.40;84.10;;;;;;4997894;28;20025;-82
2023/09/25 06:59:24;;;;;;;2.60;1.00;;;14.40;84.00;;;;;;5014831;28;20505;-82
2023/09/25 07:01:50;;;;;;;2.35;0.80;;;14.50;84.10;;;;;;5007796;28;20433;-81
2023/09/25 07:04:16;;;;;;;2.72;0.80;;;14.50;84.10;;;;;;4995364;28;20490;-82
2023/09/25 07:06:41;;;;;;;2.45;0.80;;;14.60;84.00;;;;;;4978029;28;20076;-82
2023/09/25 07:09:09;;;;;;;3.90;0.90;;;14.70;83.90;;;;;;5008739;28;20053;-82
2023/09/25 07:11:36;;;;;;;2.80;0.70;;;14.80;83.90;;;;;;5003429;28;20105;-82
2023/09/25 07:14:01;;;;;;;1.70;0.60;;;14.80;83.80;;;;;;5005508;28;20022;-83
2023/09/25 07:16:27;;;;;;;2.60;0.75;;;14.90;83.70;;;;;;4988339;28;20562;-83
2023/09/25 07:18:53;;;;;;;3.75;1.00;;;15.00;83.60;;;;;;4986568;28;20069;-82
2023/09/25 07:21:19;;;;;;;2.90;0.82;;;15.00;83.50;;;;;;4987316;28;20056;-82
2023/09/25 07:23:46;;;;;;;2.45;0.70;;;15.10;83.40;;;;;;5005318;28;20015;-82
2023/09/25 07:26:15;;;;;;;3.53;0.80;;;15.10;83.30;;;;;;4986076;28;20015;-82
2023/09/25 07:28:41;;;;;;;2.88;0.80;;;15.20;83.20;;;;;;4987956;28;20013;-82
2023/09/25 07:31:07;;;;;;;3.03;0.80;;;15.30;83.00;;;;;;4989073;28;20366;-82
2023/09/25 07:33:33;;;;;;;2.88;0.90;;;15.40;82.70;;;;;;4986758;28;20403;-83
2023/09/25 07:35:59;;;;;;;4.43;0.98;;;15.40;82.20;;;;;;4996754;28;20021;-83
2023/09/25 07:38:25;;;;;;;1.80;0.63;;;15.50;80.30;;;;;;5013764;28;20034;-83
2023/09/25 07:40:51;;;;;;;3.17;0.80;;;15.50;80.10;;;;;;5008343;28;20481;-83
2023/09/25 07:43:19;;;;;;;3.08;0.82;;;15.60;79.40;;;;;;4996404;28;20077;-84
2023/09/25 07:45:48;;;;;;;2.85;0.70;;;15.70;79.10;;;;;;4995563;28;20027;-83
2023/09/25 07:48:17;;;;;;;2.58;0.88;;;15.70;78.50;;;;;;4993703;28;20022;-84
2023/09/25 07:50:45;;;;;;;4.97;1.00;;;15.80;78.40;;;;;;5003006;28;20022;-84
2023/09/25 07:53:12;;;;;;;3.28;0.90;;;15.90;77.80;;;;;;4991487;28;20037;-85
2023/09/25 07:55:38;;;;;;;2.13;0.70;;;15.90;77.40;;;;;;4980727;28;20046;-84
2023/09/25 07:58:04;;;;;;;2.40;0.88;;;16.00;76.40;;;;;;4977819;28;20048;-84
2023/09/25 08:00:44;;;;;;;3.63;0.80;;;16.00;75.80;;;;;;4973867;28;20023;-83
2023/09/25 08:03:15;;;;;;;2.10;0.68;;;16.10;76.00;;;;;;4963437;28;20042;-83
2023/09/25 08:05:40;;;;;;;6.40;1.20;;;16.20;75.60;;;;;;4957717;28;20058;-85
2023/09/25 08:08:06;;;;;;;5.13;1.02;;;16.20;75.30;;;;;;4974681;28;20482;-83
2023/09/25 08:10:33;;;;;;;3.00;0.90;;;16.30;74.60;;;;;;4975560;28;20035;-84
2023/09/25 08:12:59;;;;;;;2.83;0.80;;;16.40;74.50;;;;;;4958292;28;20062;-85
2023/09/25 08:15:25;;;;;;;3.33;1.00;;;16.40;73.90;;;;;;4969471;28;20425;-85
2023/09/25 08:17:50;;;;;;;2.35;0.70;;;16.50;74.00;;;;;;4992014;28;20395;-84
2023/09/25 08:20:23;;;;;;;3.72;0.73;;;16.60;74.10;;;;;;4966368;28;20035;-83
2023/09/25 08:22:52;;;;;;;2.22;0.75;;;16.60;73.70;;;;;;4974796;28;20047;-82
2023/09/25 08:25:18;;;;;;;2.33;0.80;;;16.70;73.40;;;;;;4974754;28;20479;-82
2023/09/25 08:27:44;;;;;;;2.45;0.82;;;16.80;73.10;;;;;;4975625;28;20372;-81
2023/09/25 08:30:11;;;;;;;3.35;0.90;;;16.80;73.30;;;;;;4985125;28;20062;-81
2023/09/25 08:32:37;;;;;;;3.80;1.20;;;16.90;73.00;;;;;;4974647;28;20034;-82
2023/09/25 08:35:03;;;;;;;5.25;1.05;;;16.90;72.60;;;;;;4965957;28;20386;-81
2023/09/25 08:37:29;;;;;;;2.65;0.70;;;17.00;72.60;;;;;;4974782;28;20034;-81
2023/09/25 08:39:55;;;;;;;6.68;1.05;;;17.00;72.60;;;;;;4977997;28;20025;-80
2023/09/25 08:42:22;;;;;;;2.50;0.85;;;17.10;72.70;;;;;;4993185;28;20026;-82
2023/09/25 08:44:52;;;;;;;3.95;0.90;;;17.20;72.70;;;;;;4975540;28;20018;-82
2023/09/25 08:47:19;;;;;;;4.20;1.27;;;17.20;72.60;;;;;;4993429;28;20026;-81
2023/09/25 08:49:55;;;;;;;4.95;1.33;;;17.30;72.20;;;;;;4964975;28;20033;-83
2023/09/25 08:52:23;;;;;;;4.43;1.00;;;17.30;71.70;;;;;;4976992;28;20023;-82
2023/09/25 08:54:50;;;;;;;4.72;0.85;;;17.40;71.70;;;;;;4980384;28;20494;-82
2023/09/25 08:57:18;;;;;;;4.78;1.15;;;17.50;71.90;;;;;;4993550;28;20042;-82
2023/09/25 08:59:46;;;;;;;4.43;1.40;;;17.60;72.10;;;;;;4993542;28;20569;-81
2023/09/25 09:02:12;;;;;;;3.83;1.00;;;17.70;71.90;;;;;;4976235;28;20509;-82
2023/09/25 09:04:40;;;;;;;3.80;1.13;;;17.70;71.70;;;;;;4975877;28;20050;-82
2023/09/25 09:07:10;;;;;;;4.53;0.98;;;17.80;71.60;;;;;;4993520;28;20490;-82
2023/09/25 09:09:36;;;;;;;2.15;0.73;;;17.90;71.30;;;;;;4976505;28;20113;-81
2023/09/25 09:12:03;;;;;;;5.00;1.33;;;18.00;70.60;;;;;;4976417;28;20018;-81
2023/09/25 09:14:37;;;;;;;5.70;1.08;;;18.10;70.60;;;;;;4992460;28;20089;-82
2023/09/25 09:17:07;;;;;;;2.47;0.85;;;18.20;70.20;;;;;;4969684;28;20073;-83
2023/09/25 09:19:46;;;;;;;3.42;1.27;;;18.30;70.10;;;;;;4975029;28;20018;-82
2023/09/25 09:22:13;;;;;;;4.95;1.40;;;18.30;69.90;;;;;;4975174;28;20070;-82
2023/09/25 09:24:41;;;;;;;4.25;1.20;;;18.40;69.20;;;;;;4965172;28;20022;-81
2023/09/25 09:27:07;;;;;;;3.35;1.05;;;18.50;69.30;;;;;;4993442;28;20446;-82
2023/09/25 09:29:43;;;;;;;3.70;1.02;;;18.60;69.60;;;;;;4975697;28;20026;-82
2023/09/25 09:32:10;;;;;;;2.05;0.85;;;18.70;69.70;;;;;;5008586;28;20023;-82
2023/09/25 09:34:39;;;;;;;2.70;1.13;;;18.80;69.70;;;;;;5008884;28;20025;-82
2023/09/25 09:37:09;;;;;;;2.58;0.85;;;18.90;69.50;;;;;;4994599;28;20037;-81
2023/09/25 09:39:36;;;;;;;4.68;1.10;;;19.00;68.80;;;;;;4975300;28;20030;-82
2023/09/25 09:42:05;;;;;;;2.60;1.00;;;19.10;68.50;;;;;;4975417;28;20163;-81
2023/09/25 09:44:31;;;;;;;4.78;1.30;;;19.10;67.50;;;;;;4975153;28;20097;-82
2023/09/25 09:47:00;;;;;;;5.50;1.08;;;19.20;67.10;;;;;;4992762;28;20022;-82
2023/09/25 09:49:26;;;;;;;3.45;1.02;;;19.30;66.80;;;;;;4975719;28;20023;-81
2023/09/25 09:51:52;;;;;;;3.35;1.15;;;19.40;66.60;;;;;;4988726;28;20019;-81
2023/09/25 09:54:21;;;;;;;3.88;1.40;;;19.60;66.10;;;;;;4986976;28;20529;-81
2023/09/25 09:56:47;;;;;;;4.80;1.20;;;19.80;65.70;;;;;;4998467;28;20026;-82
2023/09/25 09:59:14;;;;;;;5.40;1.13;;;19.90;65.40;;;;;;5005628;28;20101;-81
2023/09/25 10:01:43;;;;;;;4.70;1.50;;;20.20;65.20;;;;;;4991301;28;20046;-83
2023/09/25 10:04:09;;;;;;;3.70;1.13;;;20.50;65.40;;;;;;4980077;28;20089;-82
2023/09/25 10:06:59;;;;;;;3.25;0.98;;;20.80;65.10;;;;;;4979353;28;20014;-82
2023/09/25 10:09:30;;;;;;;3.50;1.35;;;21.30;65.10;;;;;;4998909;28;20023;-81
2023/09/25 10:11:56;;;;;;;4.72;1.40;;;21.70;64.70;;;;;;4979536;28;20369;-82
2023/09/25 10:14:23;;;;;;;2.35;0.80;;;22.10;63.40;;;;;;4997348;28;20031;-83
2023/09/25 10:17:04;;;;;;;2.97;1.02;;;22.50;63.30;;;;;;4997321;28;20030;-82
2023/09/25 10:19:52;;;;;;;3.22;1.10;;;22.90;61.20;;;;;;4980061;28;20038;-82
2023/09/25 10:22:21;;;;;;;2.58;0.80;;;23.20;60.00;;;;;;4998633;28;20026;-83
2023/09/25 10:25:05;;;;;;;2.88;1.00;;;23.40;59.30;;;;;;4998049;28;20029;-82
2023/09/25 10:27:34;;;;;;;2.58;0.90;;;23.60;58.50;;;;;;4996766;28;20022;-83
2023/09/25 10:30:08;;;;;;;2.67;0.88;;;23.80;58.80;;;;;;4996379;28;20026;-82
2023/09/25 10:32:37;;;;;;;2.88;0.82;;;24.10;58.20;;;;;;4978603;28;20034;-82
2023/09/25 10:35:40;;;;;;;2.47;1.00;;;24.30;58.00;;;;;;4995954;28;20033;-81
2023/09/25 10:38:12;;;;;;;4.35;1.05;;;24.70;57.70;;;;;;4978397;28;20414;-82
2023/09/25 10:40:46;;;;;;;3.05;1.10;;;25.00;57.80;;;;;;4978621;28;20025;-82
2023/09/25 10:43:14;;;;;;;3.35;1.00;;;25.40;56.90;;;;;;4982429;28;20110;-82
2023/09/25 10:45:39;;;;;;;4.60;1.02;;;25.70;56.60;;;;;;5009187;28;20026;-82
2023/09/25 10:48:06;;;;;;;3.20;0.90;;;26.00;56.70;;;;;;5000369;28;20027;-83
2023/09/25 10:50:32;;;;;;;2.17;0.95;;;26.50;55.70;;;;;;4994568;28;20030;-83
2023/09/25 10:52:58;;;;;;;4.85;1.27;;;26.70;55.00;;;;;;4986843;28;20423;-83
2023/09/25 10:55:23;;;;;;;4.47;1.38;;;26.80;53.40;;;;;;4995729;28;20121;-82
2023/09/25 10:57:50;;;;;;;2.50;1.10;;;26.90;53.60;;;;;;4996029;28;20109;-82
2023/09/25 11:00:18;;;;;;;3.90;1.10;;;27.00;53.40;;;;;;5007349;28;20500;-83
2023/09/25 11:02:44;;;;;;;5.13;1.02;;;27.10;51.90;;;;;;5005239;28;20105;-84
2023/09/25 11:05:11;;;;;;;2.97;1.17;;;27.20;52.60;;;;;;4978983;28;20050;-84
2023/09/25 11:07:37;;;;;;;3.08;1.33;;;27.30;51.50;;;;;;4977655;28;20545;-82
2023/09/25 11:10:27;;;;;;;2.17;0.77;;;27.40;51.30;;;;;;4978140;28;20018;-82
2023/09/25 11:12:53;;;;;;;2.38;1.00;;;27.50;51.00;;;;;;4977226;28;20030;-82
2023/09/25 11:15:19;;;;;;;5.38;1.00;;;27.60;51.30;;;;;;4995029;28;20430;-82
2023/09/25 11:17:46;;;;;;;4.60;1.20;;;27.70;51.30;;;;;;4977968;28;20545;-82
2023/09/25 11:20:19;;;;;;;2.95;1.08;;;27.90;51.30;;;;;;4977882;28;20025;-82
2023/09/25 11:22:48;;;;;;;3.80;1.08;;;28.00;51.30;;;;;;4977707;28;20081;-82
2023/09/25 11:25:16;;;;;;;4.85;1.02;;;28.10;51.30;;;;;;4993837;28;20084;-83
2023/09/25 11:27:55;;;;;;;3.47;0.95;;;28.20;51.00;;;;;;4997585;28;20472;-84
2023/09/25 11:30:26;;;;;;;3.95;1.20;;;28.20;50.60;;;;;;4988981;28;20027;-83
2023/09/25 11:32:52;;;;;;;4.45;0.85;;;28.20;50.70;;;;;;4982934;28;20034;-84
2023/09/25 11:35:22;;;;;;;2.92;0.80;;;28.30;50.60;;;;;;4997433;28;20510;-84
2023/09/25 11:38:12;;;;;;;3.03;0.85;;;28.30;50.50;;;;;;4997282;28;20045;-86
2023/09/25 11:40:38;;;;;;;5.85;0.80;;;28.20;49.90;;;;;;4997218;28;20113;-82
2023/09/25 11:43:05;;;;;;;3.20;0.63;;;28.10;49.90;;;;;;4997254;28;20026;-83
2023/09/25 11:45:31;;;;;;;2.42;0.77;;;28.10;49.70;;;;;;4996939;28;20021;-86
2023/09/25 11:47:57;;;;;;;3.10;0.93;;;28.10;49.70;;;;;;5014307;28;20099;-85
2023/09/25 11:50:23;;;;;;;4.43;1.10;;;28.10;49.30;;;;;;5014673;28;20469;-84
2023/09/25 11:52:48;;;;;;;4.15;0.80;;;28.10;49.30;;;;;;5014681;28;20387;-84
2023/09/25 11:55:17;;;;;;;2.55;0.73;;;28.10;49.10;;;;;;4987032;28;20406;-83
2023/09/25 11:57:46;;;;;;;2.80;0.90;;;28.30;49.00;;;;;;5006892;28;20097;-83
2023/09/25 12:00:15;;;;;;;1.95;0.82;;;28.30;48.70;;;;;;4995388;28;20033;-83
2023/09/25 12:02:43;;;;;;;1.75;0.68;;;28.30;48.90;;;;;;4995164;28;20042;-84
2023/09/25 12:05:09;;;;;;;3.83;1.10;;;28.20;49.00;;;;;;4996265;28;20034;-84
2023/09/25 12:07:36;;;;;;;2.75;0.82;;;28.10;48.90;;;;;;5000875;28;20077;-83
2023/09/25 12:10:09;;;;;;;2.25;0.80;;;28.00;49.00;;;;;;5000750;28;20034;-85
2023/09/25 12:12:36;;;;;;;2.78;0.90;;;28.00;49.10;;;;;;4995239;28;20046;-85
2023/09/25 12:15:05;;;;;;;3.40;0.85;;;28.00;48.90;;;;;;4996117;28;20073;-84
2023/09/25 12:17:32;;;;;;;2.33;0.80;;;28.00;48.90;;;;;;4994258;28;20030;-85
2023/09/25 12:20:05;;;;;;;3.85;1.02;;;28.00;48.90;;;;;;4976717;28;20053;-84
2023/09/25 12:22:31;;;;;;;1.92;0.70;;;27.90;48.90;;;;;;4976776;28;20033;-84
2023/09/25 12:24:57;;;;;;;2.65;0.90;;;27.90;49.10;;;;;;4994735;28;20023;-86
2023/09/25 12:27:22;;;;;;;3.10;0.70;;;27.90;49.20;;;;;;4994094;28;20060;-83
2023/09/25 12:29:48;;;;;;;2.97;0.90;;;28.00;49.30;;;;;;5003931;28;20029;-83
2023/09/25 12:32:14;;;;;;;2.05;0.88;;;28.20;49.30;;;;;;5010928;28;20032;-83
2023/09/25 12:34:40;;;;;;;1.80;0.80;;;28.40;49.30;;;;;;5005925;28;20057;-83
2023/09/25 12:37:06;;;;;;;5.50;1.23;;;28.60;49.20;;;;;;4989918;28;20018;-83
2023/09/25 12:39:34;;;;;;;3.08;0.88;;;28.70;49.00;;;;;;5008637;28;20100;-84
2023/09/25 12:42:00;;;;;;;2.72;0.85;;;28.80;48.80;;;;;;5002299;28;20112;-83
2023/09/25 12:44:26;;;;;;;3.30;0.90;;;29.00;48.90;;;;;;5009861;28;20164;-81
2023/09/25 12:46:52;;;;;;;1.92;1.00;;;29.10;48.70;;;;;;5013625;28;20493;-82
2023/09/25 12:49:19;;;;;;;2.10;0.70;;;29.20;48.60;;;;;;4984813;28;20393;-83
2023/09/25 12:51:46;;;;;;;2.83;0.80;;;29.40;48.60;;;;;;5012376;28;20547;-83
2023/09/25 12:54:11;;;;;;;2.05;0.80;;;29.60;48.40;;;;;;5006151;28;20123;-84
2023/09/25 12:56:38;;;;;;;1.67;0.52;;;29.80;48.10;;;;;;4993064;28;20125;-84
2023/09/25 12:59:03;;;;;;;1.85;0.77;;;30.00;47.70;;;;;;4993486;28;20105;-82